Time;durP1;ratioP1;P1;durP2;ratioP2;P2;SDS_P1;SDS_P2;PMS_P1;PMS_P2;Temp;Humidity;BMP_temperature;BMP_pressure;BME280_temperature;BME280_humidity;BME280_pressure;Samples;Min_cycle;Max_cycle;Signal;HPM_P1;HPM_P2
2021/11/07 00:00:22;;;;;;;;;;;20.90;43.00;;;;;;474462;251;1522;-48
2021/11/07 00:02:35;;;;;;;;;;;21.00;42.80;;;;;;473973;251;2158;-47
2021/11/07 00:04:37;;;;;;;;;;;21.00;42.60;;;;;;474322;251;2158;-47
2021/11/07 00:06:38;;;;;;;;;;;21.10;42.40;;;;;;474150;251;2266;-47
2021/11/07 00:08:44;;;;;;;;;;;21.20;42.30;;;;;;474267;251;2193;-47
2021/11/07 00:10:45;;;;;;;;;;;21.30;42.30;;;;;;474182;251;1602;-47
2021/11/07 00:12:48;;;;;;;;;;;21.30;42.20;;;;;;474173;251;2411;-48
2021/11/07 00:14:48;;;;;;;;;;;21.30;42.10;;;;;;474002;251;1344;-48
2021/11/07 00:16:48;;;;;;;;;;;21.40;42.10;;;;;;474148;246;1443;-47
2021/11/07 00:19:02;;;;;;;;;;;21.40;41.90;;;;;;474737;251;1049;-47
2021/11/07 00:20:59;;;;;;;;;;;21.40;41.90;;;;;;473739;251;1971;-47
2021/11/07 00:23:02;;;;;;;;;;;21.40;41.80;;;;;;474424;251;2330;-47
2021/11/07 00:25:03;;;;;;;;;;;21.40;41.70;;;;;;474388;251;2255;-48
2021/11/07 00:27:06;;;;;;;;;;;21.50;41.70;;;;;;474428;251;2096;-47
2021/11/07 00:29:07;;;;;;;;;;;21.50;41.70;;;;;;474101;251;2412;-47
2021/11/07 00:31:16;;;;;;;;;;;21.50;41.60;;;;;;474078;251;2490;-48
2021/11/07 00:33:19;;;;;;;;;;;21.50;41.60;;;;;;473708;251;1952;-48
2021/11/07 00:35:43;;;;;;;;;;;21.60;41.60;;;;;;474373;251;2169;-48
2021/11/07 00:37:33;;;;;;;;;;;21.60;41.50;;;;;;473662;251;1913;-48
2021/11/07 00:39:41;;;;;;;;;;;21.60;41.40;;;;;;474477;251;2151;-47
2021/11/07 00:41:43;;;;;;;;;;;21.70;41.40;;;;;;473960;251;2431;-48
2021/11/07 00:43:43;;;;;;;;;;;21.70;41.40;;;;;;473987;251;2299;-47
2021/11/07 00:45:43;;;;;;;;;;;21.70;41.40;;;;;;473988;251;1995;-48
2021/11/07 00:47:44;;;;;;;;;;;21.70;41.30;;;;;;474216;251;2199;-47
2021/11/07 00:49:47;;;;;;;;;;;21.70;41.30;;;;;;474502;251;2247;-48
2021/11/07 00:51:56;;;;;;;;;;;21.80;41.30;;;;;;474225;246;2560;-47
2021/11/07 00:53:51;;;;;;;;;;;21.70;41.20;;;;;;474011;251;2225;-48
2021/11/07 00:55:53;;;;;;;;;;;21.80;41.30;;;;;;474070;251;2489;-47
2021/11/07 00:57:53;;;;;;;;;;;21.80;41.20;;;;;;474038;251;1611;-48
2021/11/07 00:59:57;;;;;;;;;;;21.80;41.20;;;;;;474229;251;2295;-48
2021/11/07 01:01:59;;;;;;;;;;;21.80;41.20;;;;;;474006;251;2483;-47
2021/11/07 01:04:00;;;;;;;;;;;21.80;41.20;;;;;;474494;251;1558;-47
2021/11/07 01:05:58;;;;;;;;;;;21.80;41.10;;;;;;474044;251;2673;-48
2021/11/07 01:08:00;;;;;;;;;;;21.80;41.10;;;;;;474198;251;1147;-48
2021/11/07 01:10:01;;;;;;;;;;;21.90;41.10;;;;;;474702;251;2129;-48
2021/11/07 01:12:02;;;;;;;;;;;21.90;41.10;;;;;;474345;251;1126;-47
2021/11/07 01:14:04;;;;;;;;;;;21.90;41.10;;;;;;474681;251;1160;-48
2021/11/07 01:16:06;;;;;;;;;;;21.90;41.00;;;;;;474662;251;1182;-47
2021/11/07 01:18:06;;;;;;;;;;;21.90;41.00;;;;;;474329;251;2246;-47
2021/11/07 01:20:08;;;;;;;;;;;21.90;41.00;;;;;;474287;251;1094;-48
2021/11/07 01:22:14;;;;;;;;;;;21.90;41.00;;;;;;474297;251;1257;-47
2021/11/07 01:24:15;;;;;;;;;;;21.90;41.00;;;;;;474027;251;2242;-48
2021/11/07 01:26:16;;;;;;;;;;;21.90;41.00;;;;;;474043;251;2178;-47
2021/11/07 01:28:14;;;;;;;;;;;22.00;41.00;;;;;;474037;251;2185;-48
2021/11/07 01:30:16;;;;;;;;;;;21.90;40.90;;;;;;474266;251;2276;-48
2021/11/07 01:32:18;;;;;;;;;;;21.90;41.00;;;;;;474682;251;1199;-48
2021/11/07 01:34:23;;;;;;;;;;;22.00;41.00;;;;;;474188;251;2160;-48
2021/11/07 01:36:29;;;;;;;;;;;22.00;41.00;;;;;;473903;251;1381;-47
2021/11/07 01:38:28;;;;;;;;;;;22.00;40.90;;;;;;474427;251;2390;-48
2021/11/07 01:40:30;;;;;;;;;;;22.00;40.90;;;;;;474142;251;2201;-48
2021/11/07 01:42:34;;;;;;;;;;;22.00;40.90;;;;;;474141;251;2211;-47
2021/11/07 01:44:32;;;;;;;;;;;22.00;40.90;;;;;;474439;251;2196;-47
2021/11/07 01:46:34;;;;;;;;;;;22.00;40.90;;;;;;474282;251;1082;-48
2021/11/07 01:48:42;;;;;;;;;;;22.00;40.90;;;;;;474239;251;2106;-48
2021/11/07 01:50:40;;;;;;;;;;;22.00;40.90;;;;;;473778;251;2181;-48
2021/11/07 01:52:40;;;;;;;;;;;22.10;40.90;;;;;;473979;251;1362;-47
2021/11/07 01:54:48;;;;;;;;;;;22.00;40.90;;;;;;474453;251;2209;-47
2021/11/07 01:56:48;;;;;;;;;;;22.00;40.90;;;;;;474196;251;2171;-47
2021/11/07 01:58:49;;;;;;;;;;;22.10;40.90;;;;;;474756;251;986;-48
2021/11/07 02:00:50;;;;;;;;;;;22.00;40.80;;;;;;474321;251;1303;-48
2021/11/07 02:02:52;;;;;;;;;;;22.10;40.80;;;;;;474330;251;1095;-48
2021/11/07 02:04:53;;;;;;;;;;;22.00;40.80;;;;;;474678;251;1076;-48
2021/11/07 02:06:54;;;;;;;;;;;22.10;40.80;;;;;;474633;251;1063;-48
2021/11/07 02:08:56;;;;;;;;;;;22.10;40.80;;;;;;474525;251;1155;-48
2021/11/07 02:10:57;;;;;;;;;;;22.10;40.80;;;;;;474454;251;2203;-47
2021/11/07 02:12:58;;;;;;;;;;;22.10;40.80;;;;;;474741;251;1131;-47
2021/11/07 02:15:00;;;;;;;;;;;22.10;40.80;;;;;;474635;251;1153;-48
2021/11/07 02:17:01;;;;;;;;;;;22.10;40.80;;;;;;474725;251;1249;-48
2021/11/07 02:19:02;;;;;;;;;;;22.10;40.80;;;;;;474318;251;1058;-48
2021/11/07 02:21:05;;;;;;;;;;;22.10;40.80;;;;;;474646;251;1230;-48
2021/11/07 02:23:06;;;;;;;;;;;22.10;40.80;;;;;;474205;251;2262;-48
2021/11/07 02:25:07;;;;;;;;;;;22.10;40.70;;;;;;474556;251;1036;-47
2021/11/07 02:27:09;;;;;;;;;;;22.10;40.70;;;;;;474309;251;1162;-47
2021/11/07 02:29:10;;;;;;;;;;;22.10;40.70;;;;;;474468;251;2118;-48
2021/11/07 02:31:11;;;;;;;;;;;22.10;40.70;;;;;;474256;251;1206;-47
2021/11/07 02:33:12;;;;;;;;;;;22.10;40.70;;;;;;474241;251;1347;-48
2021/11/07 02:35:13;;;;;;;;;;;22.20;40.70;;;;;;474490;251;1042;-48
2021/11/07 02:37:15;;;;;;;;;;;22.10;40.70;;;;;;474563;251;1125;-48
2021/11/07 02:39:16;;;;;;;;;;;22.20;40.70;;;;;;474661;251;1070;-48
2021/11/07 02:41:17;;;;;;;;;;;22.20;40.70;;;;;;474555;251;1305;-48
2021/11/07 02:43:19;;;;;;;;;;;22.20;40.70;;;;;;474523;251;1069;-48
2021/11/07 02:45:20;;;;;;;;;;;22.20;40.70;;;;;;474643;251;1246;-48
2021/11/07 02:47:21;;;;;;;;;;;22.20;40.70;;;;;;474339;251;1196;-48
2021/11/07 02:49:23;;;;;;;;;;;22.20;40.70;;;;;;474773;251;2196;-48
2021/11/07 02:51:24;;;;;;;;;;;22.20;40.70;;;;;;474563;251;1405;-48
2021/11/07 02:53:26;;;;;;;;;;;22.20;40.70;;;;;;474309;251;1065;-47
2021/11/07 02:55:27;;;;;;;;;;;22.20;40.70;;;;;;474652;251;1133;-47
2021/11/07 02:57:28;;;;;;;;;;;22.20;40.70;;;;;;474444;251;1037;-47
2021/11/07 02:59:31;;;;;;;;;;;22.20;40.60;;;;;;474268;251;1206;-48
2021/11/07 03:01:31;;;;;;;;;;;22.20;40.60;;;;;;474134;251;2168;-48
2021/11/07 03:03:32;;;;;;;;;;;22.20;40.60;;;;;;474304;251;1083;-47
2021/11/07 03:05:34;;;;;;;;;;;22.20;40.60;;;;;;474283;251;1415;-47
2021/11/07 03:07:35;;;;;;;;;;;22.20;40.60;;;;;;474706;251;1090;-48
2021/11/07 03:09:36;;;;;;;;;;;22.30;40.70;;;;;;474727;251;2204;-47
2021/11/07 03:11:41;;;;;;;;;;;22.30;40.60;;;;;;474709;251;1069;-48
2021/11/07 03:13:41;;;;;;;;;;;22.30;40.70;;;;;;474222;251;2078;-47
2021/11/07 03:15:42;;;;;;;;;;;22.30;40.60;;;;;;474610;251;1268;-47
2021/11/07 03:17:43;;;;;;;;;;;22.20;40.60;;;;;;474662;251;1199;-48
2021/11/07 03:19:45;;;;;;;;;;;22.30;40.60;;;;;;474635;251;1078;-48
2021/11/07 03:21:46;;;;;;;;;;;22.30;40.60;;;;;;474663;251;1097;-48
2021/11/07 03:23:50;;;;;;;;;;;22.30;40.60;;;;;;474278;251;1084;-48
2021/11/07 03:25:56;;;;;;;;;;;22.30;40.60;;;;;;474145;251;1365;-48
2021/11/07 03:27:50;;;;;;;;;;;22.30;40.60;;;;;;473794;251;2124;-48
2021/11/07 03:29:54;;;;;;;;;;;22.30;40.60;;;;;;474723;251;2177;-48
2021/11/07 03:31:57;;;;;;;;;;;22.30;40.60;;;;;;474301;251;2321;-47
2021/11/07 03:33:57;;;;;;;;;;;22.30;40.60;;;;;;474081;251;1559;-48
2021/11/07 03:35:57;;;;;;;;;;;22.30;40.60;;;;;;474123;251;2274;-48
2021/11/07 03:37:57;;;;;;;;;;;22.30;40.60;;;;;;474362;251;2108;-48
2021/11/07 03:39:58;;;;;;;;;;;22.30;40.60;;;;;;474538;251;1129;-48
2021/11/07 03:41:59;;;;;;;;;;;22.30;40.60;;;;;;474294;251;1211;-47
2021/11/07 03:44:01;;;;;;;;;;;22.30;40.60;;;;;;474736;251;1182;-48
2021/11/07 03:46:02;;;;;;;;;;;22.30;40.50;;;;;;474450;251;1221;-48
2021/11/07 03:48:03;;;;;;;;;;;22.40;40.60;;;;;;474725;251;1293;-48
2021/11/07 03:50:06;;;;;;;;;;;22.30;40.50;;;;;;474726;251;2118;-47
2021/11/07 03:52:06;;;;;;;;;;;22.30;40.50;;;;;;474478;251;2239;-47
2021/11/07 03:54:07;;;;;;;;;;;22.30;40.50;;;;;;474525;251;981;-48
2021/11/07 03:56:08;;;;;;;;;;;22.30;40.50;;;;;;474656;251;1494;-48
2021/11/07 03:58:10;;;;;;;;;;;22.40;40.50;;;;;;474504;251;1044;-48
2021/11/07 04:00:11;;;;;;;;;;;22.30;40.50;;;;;;474716;251;1088;-48
2021/11/07 04:02:12;;;;;;;;;;;22.40;40.50;;;;;;474393;251;1431;-47
2021/11/07 04:04:14;;;;;;;;;;;22.30;40.50;;;;;;474715;251;1055;-48
2021/11/07 04:06:16;;;;;;;;;;;22.30;40.50;;;;;;474585;251;1177;-48
2021/11/07 04:08:16;;;;;;;;;;;22.40;40.50;;;;;;474488;251;2227;-48
2021/11/07 04:10:18;;;;;;;;;;;22.40;40.50;;;;;;474293;251;2237;-47
2021/11/07 04:12:19;;;;;;;;;;;22.40;40.50;;;;;;474246;251;1210;-48
2021/11/07 04:14:20;;;;;;;;;;;22.30;40.50;;;;;;474298;251;1068;-48
2021/11/07 04:16:22;;;;;;;;;;;22.30;40.50;;;;;;474548;251;1207;-48
2021/11/07 04:18:23;;;;;;;;;;;22.30;40.50;;;;;;474656;251;1618;-48
2021/11/07 04:20:24;;;;;;;;;;;22.40;40.50;;;;;;474549;251;993;-48
2021/11/07 04:22:26;;;;;;;;;;;22.40;40.50;;;;;;474164;251;1209;-47
2021/11/07 04:24:27;;;;;;;;;;;22.40;40.40;;;;;;474276;251;1085;-48
2021/11/07 04:26:28;;;;;;;;;;;22.40;40.40;;;;;;474215;251;1170;-47
2021/11/07 04:28:30;;;;;;;;;;;22.40;40.40;;;;;;474267;251;1202;-48
2021/11/07 04:30:31;;;;;;;;;;;22.40;40.40;;;;;;474403;251;2134;-47
2021/11/07 04:32:32;;;;;;;;;;;22.40;40.40;;;;;;474253;251;1196;-48
2021/11/07 04:34:34;;;;;;;;;;;22.40;40.40;;;;;;474728;251;1068;-48
2021/11/07 04:36:35;;;;;;;;;;;22.40;40.40;;;;;;474438;251;1322;-47
2021/11/07 04:38:36;;;;;;;;;;;22.40;40.40;;;;;;474263;251;1264;-48
2021/11/07 04:40:38;;;;;;;;;;;22.50;40.40;;;;;;474702;251;1269;-48
2021/11/07 04:42:40;;;;;;;;;;;22.40;40.30;;;;;;474573;251;1222;-48
2021/11/07 04:44:40;;;;;;;;;;;22.50;40.40;;;;;;474623;251;2271;-48
2021/11/07 04:46:42;;;;;;;;;;;22.50;40.40;;;;;;474323;247;1256;-47
2021/11/07 04:48:43;;;;;;;;;;;22.50;40.30;;;;;;474776;251;1081;-48
2021/11/07 04:50:46;;;;;;;;;;;22.50;40.40;;;;;;474774;251;2196;-47
2021/11/07 04:52:46;;;;;;;;;;;22.50;40.40;;;;;;474633;251;2357;-48
2021/11/07 04:54:47;;;;;;;;;;;22.50;40.40;;;;;;474731;251;1030;-47
2021/11/07 04:56:48;;;;;;;;;;;22.50;40.30;;;;;;474688;251;1222;-48
2021/11/07 04:58:50;;;;;;;;;;;22.50;40.40;;;;;;474730;251;1076;-48
2021/11/07 05:00:51;;;;;;;;;;;22.50;40.40;;;;;;474667;251;1134;-48
2021/11/07 05:02:52;;;;;;;;;;;22.50;40.40;;;;;;474517;251;1221;-47
2021/11/07 05:04:55;;;;;;;;;;;22.50;40.30;;;;;;474755;251;1113;-48
2021/11/07 05:06:55;;;;;;;;;;;22.50;40.30;;;;;;474187;251;1796;-48
2021/11/07 05:08:56;;;;;;;;;;;22.50;40.30;;;;;;474571;251;1232;-47
2021/11/07 05:10:57;;;;;;;;;;;22.50;40.30;;;;;;474273;251;2189;-47
2021/11/07 05:12:59;;;;;;;;;;;22.50;40.30;;;;;;474341;251;1147;-48
2021/11/07 05:15:00;;;;;;;;;;;22.50;40.30;;;;;;474669;251;1123;-48
2021/11/07 05:17:01;;;;;;;;;;;22.50;40.30;;;;;;474286;251;1321;-48
2021/11/07 05:19:04;;;;;;;;;;;22.50;40.30;;;;;;474335;251;1192;-48
2021/11/07 05:21:04;;;;;;;;;;;22.50;40.30;;;;;;474659;251;2450;-48
2021/11/07 05:23:05;;;;;;;;;;;22.50;40.30;;;;;;474657;251;1223;-48
2021/11/07 05:25:07;;;;;;;;;;;22.50;40.30;;;;;;474598;251;1056;-48
2021/11/07 05:27:08;;;;;;;;;;;22.50;40.20;;;;;;474273;251;1189;-48
2021/11/07 05:29:10;;;;;;;;;;;22.50;40.30;;;;;;474585;251;1078;-48
2021/11/07 05:31:11;;;;;;;;;;;22.50;40.30;;;;;;474673;244;2121;-47
2021/11/07 05:33:12;;;;;;;;;;;22.60;40.30;;;;;;474506;251;1206;-48
2021/11/07 05:35:13;;;;;;;;;;;22.50;40.30;;;;;;474757;251;1085;-48
2021/11/07 05:37:15;;;;;;;;;;;22.50;40.20;;;;;;474360;251;1590;-48
2021/11/07 05:39:16;;;;;;;;;;;22.50;40.20;;;;;;474279;251;1282;-48
2021/11/07 05:41:17;;;;;;;;;;;22.60;40.30;;;;;;474251;251;1631;-48
2021/11/07 05:43:21;;;;;;;;;;;22.50;40.20;;;;;;474314;251;1070;-48
2021/11/07 05:45:21;;;;;;;;;;;22.60;40.30;;;;;;474523;251;2188;-48
2021/11/07 05:47:22;;;;;;;;;;;22.60;40.20;;;;;;474419;251;1270;-47
2021/11/07 05:49:23;;;;;;;;;;;22.60;40.30;;;;;;474393;251;1153;-48
2021/11/07 05:51:25;;;;;;;;;;;22.50;40.20;;;;;;474234;251;2189;-48
2021/11/07 05:53:26;;;;;;;;;;;22.50;40.20;;;;;;474745;251;1076;-48
2021/11/07 05:55:27;;;;;;;;;;;22.50;40.20;;;;;;474737;251;1253;-48
2021/11/07 05:57:29;;;;;;;;;;;22.50;40.20;;;;;;474386;251;1324;-48
2021/11/07 05:59:30;;;;;;;;;;;22.60;40.20;;;;;;474741;251;1123;-48
2021/11/07 06:01:31;;;;;;;;;;;22.50;40.20;;;;;;474421;251;1353;-48
2021/11/07 06:03:33;;;;;;;;;;;22.60;40.20;;;;;;474568;251;1152;-48
2021/11/07 06:05:34;;;;;;;;;;;22.60;40.20;;;;;;474508;251;1154;-48
2021/11/07 06:07:35;;;;;;;;;;;22.60;40.20;;;;;;474217;251;1061;-48
2021/11/07 06:09:37;;;;;;;;;;;22.60;40.20;;;;;;474726;251;1040;-47
2021/11/07 06:11:38;;;;;;;;;;;22.50;40.20;;;;;;474358;251;2129;-48
2021/11/07 06:13:39;;;;;;;;;;;22.50;40.40;;;;;;474773;251;1068;-48
2021/11/07 06:15:41;;;;;;;;;;;22.40;40.40;;;;;;474736;251;1034;-48
2021/11/07 06:17:42;;;;;;;;;;;22.20;40.70;;;;;;474737;251;1296;-48
2021/11/07 06:19:45;;;;;;;;;;;22.00;41.20;;;;;;474346;251;1212;-47
2021/11/07 06:21:46;;;;;;;;;;;21.90;41.40;;;;;;474617;251;1073;-48
2021/11/07 06:23:48;;;;;;;;;;;21.70;41.70;;;;;;474731;251;1068;-47
2021/11/07 06:25:49;;;;;;;;;;;21.70;41.90;;;;;;474277;251;2162;-47
2021/11/07 06:27:50;;;;;;;;;;;21.50;42.10;;;;;;474313;251;1246;-47
2021/11/07 06:29:51;;;;;;;;;;;21.50;42.30;;;;;;474335;251;1071;-47
2021/11/07 06:31:53;;;;;;;;;;;21.40;42.40;;;;;;474691;251;2126;-48
2021/11/07 06:33:54;;;;;;;;;;;21.50;42.50;;;;;;474302;251;1136;-47
2021/11/07 06:35:55;;;;;;;;;;;21.40;42.60;;;;;;474704;251;1046;-47
2021/11/07 06:37:57;;;;;;;;;;;21.40;42.70;;;;;;474690;251;1204;-48
2021/11/07 06:39:58;;;;;;;;;;;21.40;42.70;;;;;;474771;251;1076;-47
2021/11/07 06:41:59;;;;;;;;;;;21.30;42.70;;;;;;474507;251;1304;-48
2021/11/07 06:44:01;;;;;;;;;;;21.30;42.70;;;;;;474730;251;1254;-47
2021/11/07 06:46:02;;;;;;;;;;;21.30;42.80;;;;;;474651;251;1254;-47
2021/11/07 06:48:03;;;;;;;;;;;21.30;42.70;;;;;;474306;251;1387;-47
2021/11/07 06:50:05;;;;;;;;;;;21.30;42.80;;;;;;474307;251;1213;-48
2021/11/07 06:52:06;;;;;;;;;;;21.30;42.70;;;;;;474681;251;2133;-47
2021/11/07 06:54:07;;;;;;;;;;;21.30;42.80;;;;;;474750;251;1007;-47
2021/11/07 06:56:09;;;;;;;;;;;21.20;42.80;;;;;;474348;251;1392;-48
2021/11/07 06:58:10;;;;;;;;;;;21.20;42.80;;;;;;474677;251;1067;-47
2021/11/07 07:00:11;;;;;;;;;;;21.20;42.80;;;;;;474721;251;1104;-48
2021/11/07 07:02:13;;;;;;;;;;;21.20;42.80;;;;;;474656;251;1073;-47
2021/11/07 07:04:14;;;;;;;;;;;21.20;42.70;;;;;;474625;251;1131;-47
2021/11/07 07:06:15;;;;;;;;;;;21.30;42.80;;;;;;474727;251;1262;-47
2021/11/07 07:08:20;;;;;;;;;;;21.20;42.70;;;;;;474509;251;1114;-47
2021/11/07 07:10:23;;;;;;;;;;;21.20;42.80;;;;;;474466;251;1915;-47
2021/11/07 07:12:28;;;;;;;;;;;21.20;42.80;;;;;;474038;251;2331;-47
2021/11/07 07:14:25;;;;;;;;;;;21.20;42.90;;;;;;473858;251;1994;-48
2021/11/07 07:16:32;;;;;;;;;;;21.20;42.80;;;;;;474087;251;2381;-47
2021/11/07 07:18:36;;;;;;;;;;;21.20;42.90;;;;;;473994;251;2359;-47
2021/11/07 07:20:54;;;;;;;;;;;21.20;42.90;;;;;;473919;251;2047;-47
2021/11/07 07:25:37;;;;;;;;;;;21.20;42.90;;;;;;461216;254;1890;-47
2021/11/07 07:27:39;;;;;;;;;;;21.20;42.90;;;;;;473316;251;1478;-47
2021/11/07 07:29:53;;;;;;;;;;;21.20;42.90;;;;;;487959;243;1327;-47
2021/11/07 07:31:57;;;;;;;;;;;21.10;42.90;;;;;;487461;244;2459;-47
2021/11/07 07:34:01;;;;;;;;;;;21.20;42.90;;;;;;478393;249;1979;-47
2021/11/07 07:36:00;;;;;;;;;;;21.10;42.80;;;;;;474063;248;2446;-47
2021/11/07 07:38:01;;;;;;;;;;;21.10;42.90;;;;;;474230;251;1046;-48
2021/11/07 07:40:02;;;;;;;;;;;21.10;42.90;;;;;;474293;251;1040;-48
2021/11/07 07:42:04;;;;;;;;;;;21.10;42.90;;;;;;474245;251;1216;-47
2021/11/07 07:44:07;;;;;;;;;;;21.10;43.00;;;;;;474435;251;1084;-47
2021/11/07 07:46:11;;;;;;;;;;;21.10;43.00;;;;;;474333;251;1565;-47
2021/11/07 07:48:09;;;;;;;;;;;21.10;42.90;;;;;;474126;251;1977;-47
2021/11/07 07:50:11;;;;;;;;;;;21.00;43.00;;;;;;474512;251;1211;-47
2021/11/07 07:52:12;;;;;;;;;;;21.00;43.00;;;;;;474662;251;2208;-47
2021/11/07 07:54:13;;;;;;;;;;;21.00;43.00;;;;;;474448;251;1076;-47
2021/11/07 07:56:15;;;;;;;;;;;21.00;43.00;;;;;;474598;251;1097;-47
2021/11/07 07:58:16;;;;;;;;;;;20.90;43.10;;;;;;474614;251;1175;-47
2021/11/07 08:00:17;;;;;;;;;;;21.00;43.20;;;;;;474330;251;1077;-47
2021/11/07 08:02:19;;;;;;;;;;;20.90;43.10;;;;;;474198;246;1199;-47
2021/11/07 08:04:20;;;;;;;;;;;20.90;43.10;;;;;;474285;251;1066;-47
2021/11/07 08:06:21;;;;;;;;;;;20.90;43.20;;;;;;474213;251;1186;-47
2021/11/07 08:08:23;;;;;;;;;;;20.90;43.20;;;;;;474706;251;1180;-47
2021/11/07 08:10:24;;;;;;;;;;;20.90;43.30;;;;;;474757;251;1071;-47
2021/11/07 08:12:25;;;;;;;;;;;20.80;43.20;;;;;;474275;251;2212;-48
2021/11/07 08:14:27;;;;;;;;;;;20.90;43.30;;;;;;474723;251;1044;-47
2021/11/07 08:16:28;;;;;;;;;;;20.90;43.20;;;;;;474390;251;1201;-47
2021/11/07 08:18:30;;;;;;;;;;;20.90;43.20;;;;;;474303;251;2252;-47
2021/11/07 08:20:31;;;;;;;;;;;20.90;43.30;;;;;;474472;251;2323;-47
2021/11/07 08:22:32;;;;;;;;;;;20.90;43.20;;;;;;474288;251;1261;-47
2021/11/07 08:24:35;;;;;;;;;;;20.80;43.30;;;;;;474766;251;1009;-48
2021/11/07 08:26:35;;;;;;;;;;;20.90;43.30;;;;;;474474;251;2380;-48
2021/11/07 08:28:36;;;;;;;;;;;20.80;43.20;;;;;;474738;251;1126;-47
2021/11/07 08:30:39;;;;;;;;;;;20.80;43.40;;;;;;474309;251;998;-47
2021/11/07 08:32:39;;;;;;;;;;;20.80;43.30;;;;;;474213;251;2187;-47
2021/11/07 08:34:41;;;;;;;;;;;20.80;43.40;;;;;;474333;251;1002;-47
2021/11/07 08:36:49;;;;;;;;;;;20.80;43.40;;;;;;474285;251;1208;-47
2021/11/07 08:38:47;;;;;;;;;;;20.80;43.40;;;;;;474215;251;2389;-47
2021/11/07 08:40:47;;;;;;;;;;;20.90;43.40;;;;;;474493;251;2199;-47
2021/11/07 08:42:50;;;;;;;;;;;20.90;43.40;;;;;;474585;251;1488;-47
2021/11/07 09:01:08;;;;;;;;;;;20.80;43.20;;;;;;474277;251;1057;-48
2021/11/07 09:03:17;;;;;;;;;;;20.90;43.20;;;;;;474364;251;2016;-47
2021/11/07 09:05:18;;;;;;;;;;;20.80;43.20;;;;;;474290;251;2285;-47
2021/11/07 09:07:21;;;;;;;;;;;20.80;43.10;;;;;;474269;251;2217;-47
2021/11/07 09:09:20;;;;;;;;;;;20.80;43.10;;;;;;474358;251;2305;-47
2021/11/07 09:11:21;;;;;;;;;;;20.80;43.20;;;;;;474551;251;2198;-47
2021/11/07 09:13:22;;;;;;;;;;;20.80;43.20;;;;;;474358;251;1032;-48
2021/11/07 09:15:24;;;;;;;;;;;20.80;43.20;;;;;;474585;251;1099;-47
2021/11/07 09:17:27;;;;;;;;;;;20.90;43.20;;;;;;474655;251;1323;-47
2021/11/07 09:19:28;;;;;;;;;;;20.90;43.10;;;;;;474590;251;2124;-47
2021/11/07 09:21:31;;;;;;;;;;;20.90;43.10;;;;;;474351;251;2330;-47
2021/11/07 09:23:33;;;;;;;;;;;20.80;43.00;;;;;;474130;251;2496;-47
2021/11/07 09:25:35;;;;;;;;;;;20.90;43.10;;;;;;474059;251;2698;-48
2021/11/07 09:27:37;;;;;;;;;;;20.90;43.10;;;;;;474059;251;1948;-47
2021/11/07 09:29:45;;;;;;;;;;;20.80;43.10;;;;;;474421;251;1358;-47
2021/11/07 09:31:42;;;;;;;;;;;20.80;43.10;;;;;;473507;251;2197;-48
2021/11/07 09:33:47;;;;;;;;;;;20.80;43.20;;;;;;474394;251;2000;-47
2021/11/07 09:36:00;;;;;;;;;;;20.80;43.20;;;;;;474044;251;1362;-47
2021/11/07 09:37:53;;;;;;;;;;;20.80;43.10;;;;;;474022;251;1487;-47
2021/11/07 09:39:56;;;;;;;;;;;20.80;43.10;;;;;;474154;251;2159;-48
2021/11/07 09:42:30;;;;;;;;;;;20.80;43.10;;;;;;474328;251;2379;-47
2021/11/07 09:44:28;;;;;;;;;;;20.80;43.20;;;;;;473996;251;1593;-47
2021/11/07 09:46:35;;;;;;;;;;;20.80;43.20;;;;;;474137;251;2461;-48
2021/11/07 09:48:36;;;;;;;;;;;20.80;43.20;;;;;;474315;251;1791;-48
2021/11/07 09:50:35;;;;;;;;;;;20.80;43.20;;;;;;474615;251;2060;-47
2021/11/07 09:52:40;;;;;;;;;;;20.80;43.20;;;;;;474297;251;2205;-47
2021/11/07 09:54:39;;;;;;;;;;;20.80;43.30;;;;;;474370;251;1512;-47
2021/11/07 09:56:46;;;;;;;;;;;20.70;43.30;;;;;;474312;251;1381;-47
2021/11/07 09:58:43;;;;;;;;;;;20.70;43.30;;;;;;474123;251;2312;-47
2021/11/07 10:00:44;;;;;;;;;;;20.80;43.40;;;;;;474641;251;1582;-47
2021/11/07 10:02:45;;;;;;;;;;;20.70;43.30;;;;;;474698;251;1129;-47
2021/11/07 10:04:47;;;;;;;;;;;20.60;43.40;;;;;;474745;251;1076;-47
2021/11/07 10:06:50;;;;;;;;;;;20.60;43.50;;;;;;474176;251;1473;-47
2021/11/07 10:08:49;;;;;;;;;;;20.70;43.40;;;;;;474599;251;2160;-47
2021/11/07 10:10:56;;;;;;;;;;;20.60;43.40;;;;;;474726;251;1373;-47
2021/11/07 10:12:56;;;;;;;;;;;20.60;43.50;;;;;;474153;251;2360;-47
2021/11/07 10:14:58;;;;;;;;;;;20.60;43.40;;;;;;474209;251;1827;-47
2021/11/07 10:16:57;;;;;;;;;;;20.60;43.40;;;;;;474411;251;2307;-46
2021/11/07 10:19:01;;;;;;;;;;;20.70;43.40;;;;;;474569;251;2355;-48
2021/11/07 10:21:01;;;;;;;;;;;20.70;43.40;;;;;;474045;251;2197;-47
2021/11/07 10:23:03;;;;;;;;;;;20.60;43.50;;;;;;474227;251;1559;-47
2021/11/07 10:25:06;;;;;;;;;;;20.60;43.50;;;;;;474527;251;2244;-48
2021/11/07 10:27:07;;;;;;;;;;;20.60;43.50;;;;;;474326;251;2079;-47
2021/11/07 10:29:07;;;;;;;;;;;20.60;43.50;;;;;;474016;251;1610;-47
2021/11/07 10:31:06;;;;;;;;;;;20.50;43.50;;;;;;474476;251;1618;-47
2021/11/07 10:33:15;;;;;;;;;;;20.60;43.50;;;;;;474359;251;2200;-47
2021/11/07 10:35:27;;;;;;;;;;;20.60;43.50;;;;;;474402;251;2388;-47
2021/11/07 10:37:43;;;;;;;;;;;20.60;43.40;;;;;;473739;251;2106;-47
2021/11/07 10:39:45;;;;;;;;;;;20.60;43.40;;;;;;473949;251;1945;-47
2021/11/07 10:44:16;;;;;;;;;;;20.70;43.40;;;;;;474305;251;1042;-48
2021/11/07 10:46:29;;;;;;;;;;;20.70;43.30;;;;;;474040;251;2425;-47
2021/11/07 10:48:25;;;;;;;;;;;20.70;43.30;;;;;;473502;251;2338;-47
2021/11/07 10:52:42;;;;;;;;;;;20.70;43.30;;;;;;474240;251;2158;-47
2021/11/07 10:54:43;;;;;;;;;;;20.70;43.20;;;;;;474719;251;1089;-47
2021/11/07 10:56:45;;;;;;;;;;;20.70;43.20;;;;;;474550;251;1629;-47
2021/11/07 10:58:46;;;;;;;;;;;20.70;43.20;;;;;;474695;251;1117;-47
2021/11/07 11:00:47;;;;;;;;;;;20.70;43.20;;;;;;474657;251;1070;-48
2021/11/07 11:02:49;;;;;;;;;;;20.80;43.10;;;;;;474264;251;1369;-47
2021/11/07 11:04:50;;;;;;;;;;;20.80;43.20;;;;;;474297;251;1128;-47
2021/11/07 11:06:52;;;;;;;;;;;20.80;43.10;;;;;;474525;244;1322;-48
2021/11/07 11:08:55;;;;;;;;;;;20.80;43.10;;;;;;474570;251;1087;-47
2021/11/07 11:11:00;;;;;;;;;;;20.70;43.10;;;;;;474595;251;2314;-47
2021/11/07 11:12:58;;;;;;;;;;;20.70;43.20;;;;;;474119;251;2197;-47
2021/11/07 11:14:59;;;;;;;;;;;20.70;43.10;;;;;;474565;251;1092;-47
2021/11/07 11:17:05;;;;;;;;;;;20.80;43.10;;;;;;474244;251;1267;-47
2021/11/07 11:19:22;;;;;;;;;;;20.80;43.10;;;;;;474030;251;1462;-48
2021/11/07 11:23:51;;;;;;;;;;;20.80;43.10;;;;;;473250;251;1207;-47
2021/11/07 11:25:52;;;;;;;;;;;20.80;43.10;;;;;;473998;251;2219;-47
2021/11/07 11:28:01;;;;;;;;;;;20.70;43.00;;;;;;474163;251;2401;-47
2021/11/07 11:32:23;;;;;;;;;;;20.80;43.10;;;;;;474674;251;2216;-47
2021/11/07 11:34:26;;;;;;;;;;;20.70;43.20;;;;;;474143;251;2029;-47
2021/11/07 11:36:25;;;;;;;;;;;20.70;43.20;;;;;;474056;251;2297;-47
2021/11/07 11:38:28;;;;;;;;;;;20.70;43.20;;;;;;474172;251;1979;-47
2021/11/07 11:40:32;;;;;;;;;;;20.70;43.20;;;;;;474026;251;1762;-47
2021/11/07 11:42:31;;;;;;;;;;;20.70;43.30;;;;;;474191;251;2210;-47
2021/11/07 11:44:29;;;;;;;;;;;20.60;43.30;;;;;;473975;251;2068;-47
2021/11/07 11:46:37;;;;;;;;;;;20.60;43.30;;;;;;474302;251;1219;-47
2021/11/07 11:48:46;;;;;;;;;;;20.60;43.40;;;;;;473761;251;2179;-47
2021/11/07 11:50:50;;;;;;;;;;;20.60;43.50;;;;;;474030;251;1917;-47
2021/11/07 11:52:52;;;;;;;;;;;20.60;43.40;;;;;;473773;251;2273;-47
2021/11/07 11:55:01;;;;;;;;;;;20.50;43.40;;;;;;474186;251;2148;-47
2021/11/07 11:56:58;;;;;;;;;;;20.60;43.50;;;;;;474254;251;2276;-47
2021/11/07 11:59:03;;;;;;;;;;;20.50;43.50;;;;;;474235;251;1035;-47
2021/11/07 12:01:05;;;;;;;;;;;20.50;43.50;;;;;;474486;251;1991;-47
2021/11/07 12:03:09;;;;;;;;;;;20.60;43.50;;;;;;474109;251;2128;-47
2021/11/07 12:05:11;;;;;;;;;;;20.50;43.50;;;;;;474114;251;2095;-47
2021/11/07 12:07:09;;;;;;;;;;;20.50;43.50;;;;;;474078;251;1923;-47
2021/11/07 12:09:11;;;;;;;;;;;20.50;43.50;;;;;;474328;251;1231;-47
2021/11/07 12:11:17;;;;;;;;;;;20.50;43.50;;;;;;474307;251;1923;-47
2021/11/07 12:13:15;;;;;;;;;;;20.50;43.50;;;;;;474104;251;2324;-47
2021/11/07 12:15:27;;;;;;;;;;;20.50;43.40;;;;;;474729;251;1175;-46
2021/11/07 12:17:18;;;;;;;;;;;20.60;43.40;;;;;;473753;251;1879;-47
2021/11/07 12:19:19;;;;;;;;;;;20.60;43.40;;;;;;474272;251;1876;-47
2021/11/07 12:21:23;;;;;;;;;;;20.50;43.40;;;;;;474523;251;1022;-47
2021/11/07 12:23:23;;;;;;;;;;;20.50;43.40;;;;;;474170;251;1675;-47
2021/11/07 12:25:23;;;;;;;;;;;20.60;43.40;;;;;;474245;251;1471;-47
2021/11/07 12:27:25;;;;;;;;;;;20.50;43.30;;;;;;474432;251;1049;-47
2021/11/07 12:29:26;;;;;;;;;;;20.60;43.30;;;;;;474372;251;2461;-47